Time;durP1;ratioP1;P1;durP2;ratioP2;P2;SDS_P1;SDS_P2;PMS_P1;PMS_P2;Temp;Humidity;BMP_temperature;BMP_pressure;BME280_temperature;BME280_humidity;BME280_pressure;Samples;Min_cycle;Max_cycle;Signal;HPM_P1;HPM_P2
2023/10/14 00:02:01;;;;;;;6.05;5.07;;;14.90;72.60;;;;;;5093364;28;20039;-70
2023/10/14 00:04:29;;;;;;;5.25;4.65;;;14.90;72.70;;;;;;5092847;28;20044;-72
2023/10/14 00:06:58;;;;;;;5.97;5.03;;;14.90;72.70;;;;;;5093190;28;20093;-72
2023/10/14 00:09:25;;;;;;;5.43;4.80;;;14.90;72.70;;;;;;5092692;28;20355;-71
2023/10/14 00:11:54;;;;;;;7.68;4.70;;;14.90;72.70;;;;;;5093656;28;20047;-70
2023/10/14 00:14:23;;;;;;;5.78;4.47;;;14.80;72.70;;;;;;5092642;28;20036;-71
2023/10/14 00:16:51;;;;;;;5.47;4.75;;;14.80;72.70;;;;;;5093747;28;20057;-70
2023/10/14 00:19:18;;;;;;;5.88;4.50;;;14.80;73.30;;;;;;5074698;28;20028;-70
2023/10/14 00:21:46;;;;;;;5.90;4.88;;;14.80;72.70;;;;;;5075001;28;20028;-71
2023/10/14 00:24:16;;;;;;;4.93;4.38;;;14.80;72.70;;;;;;5084075;28;20366;-70
2023/10/14 00:26:47;;;;;;;5.72;4.50;;;14.80;72.70;;;;;;5061006;28;20040;-71
2023/10/14 00:31:45;;;;;;;4.85;4.35;;;14.80;72.70;;;;;;5096828;28;20035;-71
2023/10/14 00:34:14;;;;;;;4.80;4.30;;;14.80;72.60;;;;;;5078880;28;20055;-71
2023/10/14 00:36:39;;;;;;;5.60;4.80;;;14.70;72.60;;;;;;5096488;28;20020;-71
2023/10/14 00:39:16;;;;;;;5.47;4.32;;;14.70;72.60;;;;;;5096609;28;20462;-71
2023/10/14 00:41:43;;;;;;;6.38;4.35;;;14.70;72.60;;;;;;5096802;28;20527;-70
2023/10/14 00:44:12;;;;;;;4.43;4.03;;;14.70;72.60;;;;;;5078304;28;20028;-70
2023/10/14 00:46:42;;;;;;;4.57;4.10;;;14.60;72.60;;;;;;5096028;28;20452;-71
2023/10/14 00:49:11;;;;;;;4.90;4.15;;;14.60;72.70;;;;;;5078446;28;20028;-70
2023/10/14 00:51:42;;;;;;;5.10;4.32;;;14.60;72.70;;;;;;5078033;28;20039;-70
2023/10/14 00:54:11;;;;;;;4.22;3.83;;;14.60;72.70;;;;;;5078726;28;20028;-70
2023/10/14 00:56:40;;;;;;;4.60;4.20;;;14.50;73.30;;;;;;5062531;28;20034;-71
2023/10/14 00:59:08;;;;;;;5.43;4.55;;;14.50;72.70;;;;;;5077982;28;20030;-71
2023/10/14 01:01:55;;;;;;;4.25;3.85;;;14.50;72.60;;;;;;5096740;28;20097;-70
2023/10/14 01:04:31;;;;;;;4.28;3.88;;;14.50;72.60;;;;;;5096275;28;20488;-71
2023/10/14 01:07:12;;;;;;;4.25;3.50;;;14.50;72.50;;;;;;5096612;28;20035;-71
2023/10/14 01:15:04;;;;;;;4.82;4.13;;;14.40;72.40;;;;;;5096255;28;20105;-71
2023/10/14 01:17:30;;;;;;;4.15;3.75;;;14.50;72.50;;;;;;5078715;28;20451;-70
2023/10/14 01:20:11;;;;;;;4.07;3.67;;;14.40;72.50;;;;;;5095792;28;20028;-71
2023/10/14 01:22:38;;;;;;;4.93;3.97;;;14.40;72.40;;;;;;5077802;28;20031;-72
2023/10/14 01:25:06;;;;;;;4.35;3.90;;;14.40;72.40;;;;;;5096764;28;20032;-70
2023/10/14 01:27:35;;;;;;;4.22;3.65;;;14.40;72.40;;;;;;5093416;28;20056;-69
2023/10/14 01:30:08;;;;;;;4.10;3.70;;;14.40;72.40;;;;;;5089433;28;20526;-71
2023/10/14 01:35:25;;;;;;;4.10;3.70;;;14.40;72.30;;;;;;5096137;28;20047;-71
2023/10/14 01:37:52;;;;;;;4.28;3.65;;;14.30;72.20;;;;;;5095601;28;20072;-70
2023/10/14 01:42:48;;;;;;;4.38;3.50;;;14.30;72.20;;;;;;5076067;28;20145;-72
2023/10/14 01:45:20;;;;;;;4.03;3.63;;;14.30;72.20;;;;;;5075824;28;20040;-70
2023/10/14 01:47:49;;;;;;;3.70;3.40;;;14.20;72.10;;;;;;5075624;28;20190;-71
2023/10/14 01:50:15;;;;;;;4.00;3.60;;;14.20;72.10;;;;;;5090590;28;20347;-72
2023/10/14 01:52:44;;;;;;;3.70;3.35;;;14.20;72.10;;;;;;5077626;28;20076;-70
2023/10/14 01:55:10;;;;;;;3.95;3.55;;;14.20;72.10;;;;;;5095772;28;20028;-71
2023/10/14 01:57:36;;;;;;;4.07;3.40;;;14.20;72.10;;;;;;5096011;28;20036;-71
2023/10/14 02:00:23;;;;;;;3.97;3.58;;;14.20;72.10;;;;;;5087613;28;20047;-71
2023/10/14 02:02:59;;;;;;;3.88;3.47;;;14.20;72.10;;;;;;5076379;28;20082;-72
2023/10/14 02:05:26;;;;;;;4.38;3.17;;;14.20;72.20;;;;;;5095308;28;20048;-70
2023/10/14 02:07:52;;;;;;;3.15;2.92;;;14.20;72.10;;;;;;5095272;28;20085;-71
2023/10/14 02:10:18;;;;;;;3.20;2.90;;;14.20;72.10;;;;;;5076372;28;20032;-70
2023/10/14 02:12:44;;;;;;;3.55;3.13;;;14.20;72.10;;;;;;5095094;28;20461;-71
2023/10/14 02:15:10;;;;;;;3.45;3.15;;;14.20;72.10;;;;;;5095223;28;20807;-71
2023/10/14 02:17:36;;;;;;;3.70;3.30;;;14.20;72.10;;;;;;5095365;28;20024;-70
2023/10/14 02:20:20;;;;;;;3.40;3.10;;;14.20;72.10;;;;;;5076729;28;20103;-71
2023/10/14 02:22:49;;;;;;;3.53;3.00;;;14.20;72.10;;;;;;5076401;28;20020;-70
2023/10/14 02:25:16;;;;;;;3.17;2.83;;;14.20;72.00;;;;;;5076794;28;20024;-71
2023/10/14 02:27:44;;;;;;;3.33;3.00;;;14.20;72.00;;;;;;5071235;28;20383;-71
2023/10/14 02:30:11;;;;;;;3.30;3.00;;;14.20;72.00;;;;;;5094760;28;20077;-70
2023/10/14 02:32:37;;;;;;;3.22;2.92;;;14.20;72.00;;;;;;5093704;28;20465;-71
2023/10/14 02:35:02;;;;;;;3.17;2.88;;;14.20;71.90;;;;;;5076889;28;20089;-70
2023/10/14 02:37:30;;;;;;;3.00;2.70;;;14.20;72.00;;;;;;5094450;28;20028;-72
2023/10/14 02:39:56;;;;;;;3.22;2.90;;;14.10;71.90;;;;;;5093903;28;20036;-71
2023/10/14 02:42:21;;;;;;;2.95;2.75;;;14.10;71.90;;;;;;5093905;28;20028;-71
2023/10/14 02:44:59;;;;;;;2.80;2.60;;;14.10;71.90;;;;;;5075885;28;20036;-71
2023/10/14 02:47:26;;;;;;;3.30;2.80;;;14.10;71.90;;;;;;5094496;28;20040;-71
2023/10/14 02:49:57;;;;;;;3.35;3.00;;;14.10;71.80;;;;;;5094080;28;20028;-71
2023/10/14 02:52:33;;;;;;;3.03;2.72;;;14.10;71.80;;;;;;5094009;28;20073;-70
2023/10/14 02:55:22;;;;;;;3.40;3.10;;;14.10;71.80;;;;;;5073715;28;20354;-71
2023/10/14 02:57:47;;;;;;;3.38;3.08;;;14.10;71.80;;;;;;5093985;28;20450;-72
2023/10/14 03:00:30;;;;;;;3.08;2.78;;;14.10;71.80;;;;;;5093711;28;20112;-71
2023/10/14 03:03:02;;;;;;;3.35;3.00;;;14.00;71.70;;;;;;5075680;28;20035;-71
2023/10/14 03:08:15;;;;;;;3.25;2.95;;;14.10;71.80;;;;;;5093918;28;20078;-71
2023/10/14 03:10:42;;;;;;;3.35;3.05;;;14.00;71.70;;;;;;5094181;28;20473;-71
2023/10/14 03:13:14;;;;;;;2.65;2.45;;;14.00;71.80;;;;;;5094052;28;20058;-71
2023/10/14 03:15:44;;;;;;;3.30;3.00;;;14.00;71.80;;;;;;5075978;28;20535;-71
2023/10/14 03:18:13;;;;;;;3.10;2.78;;;14.00;71.80;;;;;;5075555;28;20030;-70
2023/10/14 03:20:41;;;;;;;3.22;2.92;;;14.00;71.90;;;;;;5075156;28;20039;-70
2023/10/14 03:23:23;;;;;;;3.25;2.95;;;14.00;71.80;;;;;;5093172;28;20028;-71
2023/10/14 03:25:54;;;;;;;2.88;2.67;;;14.00;71.90;;;;;;5075591;28;20083;-71
2023/10/14 03:28:27;;;;;;;3.10;2.80;;;14.00;71.80;;;;;;5093849;28;20165;-70
2023/10/14 03:30:58;;;;;;;3.20;2.90;;;14.00;71.80;;;;;;5084990;28;20415;-70
2023/10/14 03:33:29;;;;;;;3.35;3.00;;;14.00;71.80;;;;;;5093578;28;20481;-70
2023/10/14 03:35:57;;;;;;;3.47;2.92;;;14.00;71.90;;;;;;5075389;28;20035;-71
2023/10/14 03:38:39;;;;;;;3.10;2.80;;;14.00;71.80;;;;;;5092583;28;20024;-70
2023/10/14 03:41:20;;;;;;;3.55;3.17;;;14.00;71.90;;;;;;5093746;28;20441;-71
2023/10/14 03:46:43;;;;;;;3.67;3.28;;;14.00;71.90;;;;;;5093368;28;20036;-70
2023/10/14 03:49:20;;;;;;;3.20;2.90;;;14.00;71.90;;;;;;5060633;28;20098;-74
2023/10/14 03:51:47;;;;;;;3.60;3.30;;;14.00;71.90;;;;;;5075990;28;20599;-70
2023/10/14 03:54:19;;;;;;;3.50;3.10;;;14.00;71.90;;;;;;5075301;28;20031;-71
2023/10/14 03:56:45;;;;;;;3.75;3.38;;;14.00;71.90;;;;;;5092524;28;20028;-71
2023/10/14 03:59:21;;;;;;;3.45;3.15;;;14.00;72.50;;;;;;5091293;28;20031;-70
2023/10/14 04:01:46;;;;;;;3.40;3.10;;;14.00;71.90;;;;;;5095071;28;20032;-72
2023/10/14 04:04:18;;;;;;;4.30;3.40;;;14.00;71.90;;;;;;5079303;28;20044;-70
2023/10/14 04:12:38;;;;;;;4.00;3.30;;;14.00;71.90;;;;;;5097547;28;20035;-70
2023/10/14 04:17:40;;;;;;;3.45;2.92;;;14.00;71.90;;;;;;5097003;28;20035;-70
2023/10/14 04:22:32;;;;;;;3.55;3.03;;;14.00;71.80;;;;;;5097361;28;20541;-71
2023/10/14 04:27:45;;;;;;;3.40;3.10;;;14.00;71.80;;;;;;5095942;28;20145;-70
2023/10/14 04:30:13;;;;;;;3.20;2.83;;;14.00;71.80;;;;;;5078803;28;20039;-71
2023/10/14 04:32:47;;;;;;;3.35;3.05;;;14.00;71.80;;;;;;5078620;28;20032;-71
2023/10/14 04:35:13;;;;;;;3.60;3.10;;;14.00;71.80;;;;;;5078806;28;20123;-71
2023/10/14 04:37:51;;;;;;;3.17;2.88;;;14.00;71.80;;;;;;5095766;28;20531;-70
2023/10/14 04:43:37;;;;;;;3.20;2.90;;;14.00;71.70;;;;;;5096394;28;20393;-71
2023/10/14 04:46:16;;;;;;;3.17;2.88;;;14.00;71.70;;;;;;5078701;28;20046;-72
2023/10/14 04:48:59;;;;;;;3.25;2.95;;;14.00;71.70;;;;;;5095842;28;20140;-71
2023/10/14 04:51:30;;;;;;;3.25;2.95;;;14.00;71.70;;;;;;5095976;28;20027;-72
2023/10/14 04:54:00;;;;;;;3.90;3.17;;;14.00;71.70;;;;;;5078235;28;20058;-71
2023/10/14 04:56:32;;;;;;;3.63;3.10;;;14.00;71.70;;;;;;5077163;28;20362;-72
2023/10/14 04:58:59;;;;;;;2.75;2.55;;;14.00;71.70;;;;;;5096741;28;20020;-70
2023/10/14 05:01:24;;;;;;;3.72;2.90;;;14.10;71.70;;;;;;5091080;28;20024;-72
2023/10/14 05:03:57;;;;;;;3.35;3.05;;;14.10;71.70;;;;;;5080913;28;20094;-70
2023/10/14 05:06:29;;;;;;;3.45;3.15;;;14.10;71.80;;;;;;5096260;28;20477;-71
2023/10/14 05:08:55;;;;;;;3.42;3.03;;;14.10;71.70;;;;;;5078815;28;20419;-72
2023/10/14 05:11:25;;;;;;;3.90;3.08;;;14.20;71.70;;;;;;5078319;28;20063;-71
2023/10/14 05:14:14;;;;;;;3.33;3.03;;;14.20;71.70;;;;;;5078266;28;20089;-72
2023/10/14 05:16:53;;;;;;;3.25;2.95;;;14.20;71.70;;;;;;5077817;28;20028;-71
2023/10/14 05:19:41;;;;;;;3.00;2.70;;;14.20;71.70;;;;;;5077993;28;20127;-71
2023/10/14 05:24:47;;;;;;;3.20;2.90;;;14.30;71.70;;;;;;5095832;28;20434;-72
2023/10/14 05:27:14;;;;;;;4.10;2.92;;;14.30;71.70;;;;;;5065117;28;20110;-72
2023/10/14 05:29:39;;;;;;;3.15;2.85;;;14.30;71.70;;;;;;5095641;28;20022;-71
2023/10/14 05:32:11;;;;;;;3.28;2.97;;;14.40;71.80;;;;;;5077421;28;20029;-72
2023/10/14 05:34:42;;;;;;;3.20;2.90;;;14.40;71.80;;;;;;5096264;28;20055;-73
2023/10/14 05:37:11;;;;;;;3.22;2.92;;;14.40;71.80;;;;;;5095690;28;20028;-73
2023/10/14 05:39:38;;;;;;;3.05;2.78;;;14.50;71.80;;;;;;5077221;28;20035;-74
2023/10/14 05:42:15;;;;;;;3.08;2.78;;;14.50;71.80;;;;;;5095699;28;20058;-70
2023/10/14 05:44:47;;;;;;;3.75;2.90;;;14.50;71.80;;;;;;5096576;28;20031;-71
2023/10/14 05:47:17;;;;;;;3.30;3.00;;;14.60;71.80;;;;;;5077004;28;20040;-73
2023/10/14 05:49:44;;;;;;;4.88;2.92;;;14.60;71.80;;;;;;5077769;28;20024;-74
2023/10/14 05:52:11;;;;;;;3.30;2.90;;;14.60;71.80;;;;;;5077885;28;20122;-74
2023/10/14 05:54:38;;;;;;;2.95;2.67;;;14.70;71.80;;;;;;5096649;28;20020;-76
2023/10/14 05:57:05;;;;;;;3.78;3.00;;;14.70;71.80;;;;;;5095500;28;20054;-81
2023/10/14 05:59:32;;;;;;;3.50;3.15;;;14.80;71.90;;;;;;5094920;28;20028;-72
2023/10/14 06:01:58;;;;;;;3.50;2.92;;;14.80;71.90;;;;;;5094785;28;20053;-73
2023/10/14 06:04:23;;;;;;;2.97;2.67;;;14.90;71.90;;;;;;5095876;28;20113;-73
2023/10/14 06:06:49;;;;;;;3.03;2.70;;;14.90;71.90;;;;;;5094825;28;20469;-70
2023/10/14 06:09:17;;;;;;;3.63;3.10;;;15.00;71.90;;;;;;5094495;28;20386;-73
2023/10/14 06:11:45;;;;;;;2.97;2.67;;;15.00;71.80;;;;;;5094632;28;20032;-72
2023/10/14 06:14:12;;;;;;;3.13;2.80;;;15.10;71.80;;;;;;5095505;28;20039;-69
2023/10/14 06:16:37;;;;;;;3.55;3.10;;;15.10;71.80;;;;;;5094868;28;20048;-70
2023/10/14 06:19:05;;;;;;;3.80;3.00;;;15.20;71.80;;;;;;5077516;28;20067;-73
2023/10/14 06:21:33;;;;;;;3.78;2.92;;;15.20;71.80;;;;;;5094447;28;20093;-73
2023/10/14 06:24:00;;;;;;;3.10;2.80;;;15.30;71.80;;;;;;5094055;28;20429;-71
2023/10/14 06:26:27;;;;;;;3.40;2.80;;;15.30;71.80;;;;;;5094368;28;20059;-70
2023/10/14 06:28:56;;;;;;;4.10;2.83;;;15.40;71.70;;;;;;5076033;28;20445;-67
2023/10/14 06:31:26;;;;;;;3.13;2.80;;;15.40;71.70;;;;;;5094898;28;20032;-66
2023/10/14 06:33:54;;;;;;;20.50;14.98;;;15.40;71.60;;;;;;5076896;28;20031;-66
2023/10/14 06:36:23;;;;;;;18.95;14.05;;;15.50;71.70;;;;;;5094868;28;20016;-67
2023/10/14 06:38:52;;;;;;;12.82;9.30;;;15.50;71.80;;;;;;5094970;28;20024;-67
2023/10/14 06:41:18;;;;;;;10.48;7.05;;;15.60;71.80;;;;;;5076845;28;20024;-67
2023/10/14 06:43:47;;;;;;;7.88;5.70;;;15.60;71.80;;;;;;5076342;28;20496;-68
2023/10/14 06:46:13;;;;;;;8.77;5.10;;;15.70;71.80;;;;;;5076354;28;20123;-69
2023/10/14 06:48:39;;;;;;;4.65;3.75;;;15.70;71.70;;;;;;5076648;28;20098;-68
2023/10/14 06:51:06;;;;;;;4.78;3.33;;;15.70;71.60;;;;;;5095101;28;20457;-70
2023/10/14 06:53:31;;;;;;;3.25;2.80;;;15.70;71.60;;;;;;5076187;28;20032;-68
2023/10/14 06:56:01;;;;;;;3.60;2.85;;;15.80;71.70;;;;;;5094368;28;20358;-68
2023/10/14 06:58:32;;;;;;;3.42;2.92;;;15.80;71.70;;;;;;5094120;28;20039;-67
2023/10/14 07:00:58;;;;;;;3.53;2.70;;;15.80;71.60;;;;;;5076673;28;20024;-69
2023/10/14 07:03:24;;;;;;;3.50;2.80;;;15.80;71.50;;;;;;5075740;28;20056;-69
2023/10/14 07:08:23;;;;;;;4.35;2.67;;;15.80;71.50;;;;;;5094176;28;20036;-71
2023/10/14 07:10:53;;;;;;;3.42;2.70;;;15.80;71.50;;;;;;5094424;28;20020;-70
2023/10/14 07:13:21;;;;;;;3.20;2.67;;;15.90;71.50;;;;;;5076758;28;20111;-72
2023/10/14 07:15:48;;;;;;;3.03;2.72;;;15.90;71.40;;;;;;5076126;28;20027;-71
2023/10/14 07:18:14;;;;;;;3.60;2.80;;;15.90;71.40;;;;;;5094213;28;20023;-74
2023/10/14 07:20:42;;;;;;;3.47;2.60;;;15.90;71.40;;;;;;5075681;28;20085;-70
2023/10/14 07:23:08;;;;;;;3.67;2.67;;;15.90;71.40;;;;;;5094144;28;20462;-69
2023/10/14 07:25:41;;;;;;;3.35;2.50;;;15.90;71.40;;;;;;5094211;28;20032;-71
2023/10/14 07:28:14;;;;;;;2.67;2.47;;;15.90;71.40;;;;;;5075889;28;20040;-69
2023/10/14 07:30:48;;;;;;;2.90;2.60;;;15.90;71.40;;;;;;5094096;28;20462;-70
2023/10/14 07:33:14;;;;;;;2.90;2.50;;;15.90;71.40;;;;;;5076106;28;20060;-69
2023/10/14 07:35:41;;;;;;;3.83;2.80;;;15.90;71.40;;;;;;5074707;28;20028;-69
2023/10/14 07:38:08;;;;;;;2.88;2.55;;;15.90;71.40;;;;;;5092254;28;20020;-69
2023/10/14 07:40:34;;;;;;;2.90;2.60;;;15.90;71.40;;;;;;5076178;28;20385;-69
2023/10/14 07:43:10;;;;;;;2.90;2.60;;;15.90;71.40;;;;;;5093802;28;20028;-68
2023/10/14 07:45:43;;;;;;;3.13;2.60;;;15.90;71.40;;;;;;5093976;28;20024;-69
2023/10/14 07:48:11;;;;;;;2.53;2.33;;;15.90;71.40;;;;;;5093533;28;20057;-70
2023/10/14 07:50:44;;;;;;;3.13;2.67;;;15.90;71.40;;;;;;5075769;28;20027;-69
2023/10/14 07:53:13;;;;;;;3.03;2.72;;;15.90;71.40;;;;;;5075934;28;20020;-71
2023/10/14 07:55:41;;;;;;;3.13;2.58;;;15.90;71.40;;;;;;5075936;28;20055;-70
2023/10/14 07:58:10;;;;;;;3.38;2.88;;;15.90;71.40;;;;;;5075276;28;20112;-69
2023/10/14 08:00:41;;;;;;;3.83;2.97;;;15.90;71.50;;;;;;5075464;28;20378;-70
2023/10/14 08:03:14;;;;;;;3.20;2.67;;;15.90;71.50;;;;;;5093236;28;20374;-71
2023/10/14 08:05:41;;;;;;;4.05;2.85;;;15.90;71.50;;;;;;5093934;28;20108;-70
2023/10/14 08:08:10;;;;;;;3.28;2.97;;;15.90;71.50;;;;;;5075186;28;20036;-70
2023/10/14 08:10:45;;;;;;;2.80;2.60;;;16.00;71.50;;;;;;5075135;28;20024;-70
2023/10/14 08:13:13;;;;;;;3.55;2.85;;;16.00;71.50;;;;;;5093468;28;20032;-69
2023/10/14 08:15:42;;;;;;;3.42;2.80;;;16.00;71.50;;;;;;5075682;28;20119;-69
2023/10/14 08:18:08;;;;;;;4.20;3.13;;;16.00;71.50;;;;;;5092595;28;20020;-69
2023/10/14 08:20:34;;;;;;;3.78;2.80;;;16.00;71.50;;;;;;5075598;28;20119;-70
2023/10/14 08:23:01;;;;;;;4.22;3.38;;;16.00;71.60;;;;;;5075456;28;20031;-69
2023/10/14 08:25:28;;;;;;;3.38;3.08;;;16.00;71.60;;;;;;5075262;28;20024;-70
2023/10/14 08:27:55;;;;;;;3.85;2.95;;;16.10;71.70;;;;;;5075045;28;20043;-70
2023/10/14 08:30:24;;;;;;;3.58;3.15;;;16.10;71.60;;;;;;5075455;28;20119;-68
2023/10/14 08:32:52;;;;;;;3.20;2.88;;;16.00;71.50;;;;;;5093829;28;20020;-67
2023/10/14 08:35:19;;;;;;;3.50;3.05;;;16.10;71.50;;;;;;5093565;28;20377;-69
2023/10/14 08:37:50;;;;;;;3.58;3.15;;;16.10;71.50;;;;;;5055225;28;20463;-70
2023/10/14 08:40:21;;;;;;;3.25;2.80;;;16.10;71.50;;;;;;5055482;28;20027;-69
2023/10/14 08:42:53;;;;;;;3.75;2.65;;;16.20;71.50;;;;;;5054778;28;20025;-65
2023/10/14 08:45:21;;;;;;;4.63;3.42;;;16.20;71.90;;;;;;5055022;28;20119;-71
2023/10/14 08:47:51;;;;;;;3.20;2.78;;;16.20;72.20;;;;;;5077910;28;20084;-70
2023/10/14 08:50:19;;;;;;;3.55;2.92;;;16.40;72.20;;;;;;5096916;28;20024;-69
2023/10/14 08:52:45;;;;;;;5.65;2.90;;;16.50;72.00;;;;;;5078583;28;20081;-70
2023/10/14 08:55:19;;;;;;;4.20;2.60;;;16.50;71.90;;;;;;5078108;28;20227;-70
2023/10/14 08:57:45;;;;;;;3.60;3.00;;;16.60;71.90;;;;;;5090455;28;20115;-68
2023/10/14 09:00:19;;;;;;;2.92;2.50;;;16.60;71.90;;;;;;5095986;28;20039;-71
2023/10/14 09:02:50;;;;;;;3.13;2.70;;;16.60;71.90;;;;;;5096985;28;20024;-68
2023/10/14 09:05:19;;;;;;;3.28;2.40;;;16.70;71.90;;;;;;5074662;28;20168;-70
2023/10/14 09:07:48;;;;;;;3.30;2.65;;;16.80;72.00;;;;;;5075374;28;20398;-67
2023/10/14 09:10:16;;;;;;;3.25;2.50;;;16.80;71.90;;;;;;5075018;28;20033;-68
2023/10/14 09:13:03;;;;;;;4.70;2.45;;;16.90;71.90;;;;;;5075273;28;20420;-68
2023/10/14 09:15:32;;;;;;;2.85;2.28;;;17.00;72.00;;;;;;5074515;28;20029;-69
2023/10/14 09:17:58;;;;;;;5.22;2.60;;;17.00;71.80;;;;;;5075693;28;20111;-68
2023/10/14 09:20:31;;;;;;;2.90;2.60;;;17.10;71.70;;;;;;5076098;28;20079;-68
2023/10/14 09:23:24;;;;;;;3.05;2.55;;;17.10;71.60;;;;;;5076011;28;20032;-69
2023/10/14 09:25:57;;;;;;;3.42;2.72;;;17.20;71.60;;;;;;5075679;28;20395;-68
2023/10/14 09:28:26;;;;;;;4.78;2.50;;;17.20;71.30;;;;;;5074512;28;20051;-69
2023/10/14 09:30:53;;;;;;;3.17;2.67;;;17.30;71.20;;;;;;5074707;28;20036;-69
2023/10/14 09:33:41;;;;;;;2.72;2.45;;;17.30;71.70;;;;;;5075609;28;20017;-68
2023/10/14 09:36:14;;;;;;;3.13;2.83;;;17.40;71.00;;;;;;5075062;28;20035;-68
2023/10/14 09:38:41;;;;;;;2.60;2.33;;;17.40;70.80;;;;;;5074061;28;20031;-68
2023/10/14 09:41:10;;;;;;;3.60;2.80;;;17.40;70.70;;;;;;5074274;28;20192;-68
2023/10/14 09:43:39;;;;;;;2.80;2.42;;;17.50;70.70;;;;;;5075161;28;20016;-69
2023/10/14 09:46:12;;;;;;;2.83;2.53;;;17.50;70.60;;;;;;5073769;28;20060;-67
2023/10/14 09:48:39;;;;;;;2.70;2.50;;;17.60;70.50;;;;;;5075336;28;20025;-68
2023/10/14 09:51:06;;;;;;;2.92;2.38;;;17.60;70.40;;;;;;5075074;28;20107;-68
2023/10/14 09:53:36;;;;;;;3.58;2.70;;;17.60;70.30;;;;;;5075079;28;20036;-70
2023/10/14 09:56:12;;;;;;;3.10;2.80;;;17.60;70.20;;;;;;5073978;28;20106;-68
2023/10/14 09:58:43;;;;;;;3.00;2.70;;;17.70;70.20;;;;;;5073831;28;20035;-68
2023/10/14 10:01:19;;;;;;;2.90;2.55;;;17.70;70.10;;;;;;5073333;28;20021;-68
2023/10/14 10:03:56;;;;;;;3.53;2.92;;;17.70;70.00;;;;;;5080376;28;20055;-69
2023/10/14 10:06:57;;;;;;;2.92;2.60;;;17.80;69.90;;;;;;5094762;28;20038;-68
2023/10/14 10:09:41;;;;;;;2.65;2.45;;;17.80;69.60;;;;;;5077239;28;20028;-68
2023/10/14 10:12:10;;;;;;;3.28;2.30;;;17.80;69.50;;;;;;5095318;28;20028;-68
2023/10/14 10:14:46;;;;;;;2.88;2.50;;;17.90;69.40;;;;;;5077083;28;20036;-68
2023/10/14 10:17:14;;;;;;;2.55;2.30;;;17.90;69.40;;;;;;5056924;28;20549;-68
2023/10/14 10:20:10;;;;;;;2.42;2.20;;;18.00;69.30;;;;;;5074699;28;20114;-69
2023/10/14 10:22:50;;;;;;;2.50;2.28;;;18.00;69.10;;;;;;5056609;28;20029;-69
2023/10/14 10:25:37;;;;;;;2.70;2.20;;;18.00;69.00;;;;;;5061305;28;20024;-68
2023/10/14 10:28:26;;;;;;;2.38;2.13;;;18.00;68.90;;;;;;5080217;28;20119;-69
2023/10/14 10:30:52;;;;;;;4.85;2.45;;;18.10;68.80;;;;;;5083605;28;20040;-67
2023/10/14 10:33:18;;;;;;;2.60;2.40;;;18.10;68.80;;;;;;5076437;28;20110;-69
2023/10/14 10:35:58;;;;;;;2.63;2.30;;;18.10;68.70;;;;;;5094429;28;20069;-68
2023/10/14 10:38:27;;;;;;;2.40;2.20;;;18.20;68.70;;;;;;5094158;28;20028;-69
2023/10/14 10:41:19;;;;;;;2.72;2.45;;;18.10;68.60;;;;;;5076335;28;20036;-70
2023/10/14 10:43:46;;;;;;;3.08;2.35;;;18.20;68.30;;;;;;5076109;28;20036;-68
2023/10/14 10:46:30;;;;;;;2.60;2.35;;;18.20;68.30;;;;;;5076140;28;20043;-70
2023/10/14 10:48:56;;;;;;;;;;;18.20;68.10;;;;;;5094851;28;20078;-69
2023/10/14 10:51:22;;;;;;;2.42;2.13;;;18.20;67.60;;;;;;5094410;28;19904;-69
2023/10/14 10:53:49;;;;;;;3.58;2.65;;;18.30;68.00;;;;;;5094063;28;20051;-68
2023/10/14 10:56:18;;;;;;;2.13;1.92;;;18.30;67.90;;;;;;5059575;28;20480;-70
2023/10/14 10:58:44;;;;;;;2.60;2.40;;;18.30;67.80;;;;;;5056680;28;20024;-68
2023/10/14 11:01:12;;;;;;;2.75;2.40;;;18.40;67.70;;;;;;5073116;28;20081;-68
2023/10/14 11:03:38;;;;;;;2.38;2.17;;;18.40;67.60;;;;;;5067308;28;20059;-69
2023/10/14 11:06:04;;;;;;;3.33;2.30;;;18.40;67.50;;;;;;5075938;28;20390;-68
2023/10/14 11:08:30;;;;;;;4.15;2.60;;;18.50;67.40;;;;;;5094042;28;20028;-68
2023/10/14 11:10:57;;;;;;;3.15;2.30;;;18.50;67.30;;;;;;5075809;28;20032;-68
2023/10/14 11:13:25;;;;;;;3.20;2.30;;;18.50;67.30;;;;;;5094259;28;20066;-69
2023/10/14 11:15:51;;;;;;;2.25;2.05;;;18.50;67.10;;;;;;5094075;28;20466;-67
2023/10/14 11:18:18;;;;;;;2.33;2.13;;;18.50;67.10;;;;;;5094164;28;20035;-69
2023/10/14 11:20:45;;;;;;;3.10;2.30;;;18.50;66.90;;;;;;5093820;28;20073;-68
2023/10/14 11:23:12;;;;;;;3.20;2.38;;;18.60;66.90;;;;;;5093468;28;20106;-69
2023/10/14 11:25:49;;;;;;;2.40;2.03;;;18.60;66.80;;;;;;5094536;28;20036;-70
2023/10/14 11:28:16;;;;;;;3.08;2.10;;;18.60;66.60;;;;;;5093781;28;20066;-69
2023/10/14 11:30:47;;;;;;;2.55;2.30;;;18.60;66.60;;;;;;5075943;28;20039;-68
2023/10/14 11:33:14;;;;;;;3.10;2.25;;;18.60;66.50;;;;;;5093259;28;20024;-70
2023/10/14 11:35:40;;;;;;;2.40;2.20;;;18.70;66.50;;;;;;5075808;28;20529;-69
2023/10/14 11:38:13;;;;;;;3.00;2.70;;;18.70;66.40;;;;;;5094159;28;20115;-69
2023/10/14 11:40:47;;;;;;;3.88;2.17;;;18.70;66.20;;;;;;5075775;28;20434;-68
2023/10/14 11:43:13;;;;;;;2.90;2.25;;;18.70;66.20;;;;;;5075693;28;20077;-70
2023/10/14 11:45:43;;;;;;;2.63;2.17;;;18.80;66.70;;;;;;5075748;28;20386;-69
2023/10/14 11:48:22;;;;;;;2.40;2.20;;;18.80;66.00;;;;;;5093813;28;20050;-69
2023/10/14 11:50:58;;;;;;;2.50;2.30;;;18.80;65.80;;;;;;5075525;28;20028;-68
2023/10/14 11:53:28;;;;;;;2.90;2.40;;;18.80;65.90;;;;;;5073585;28;20115;-69
2023/10/14 11:55:59;;;;;;;2.65;2.10;;;18.80;65.80;;;;;;5055432;28;20059;-69
2023/10/14 11:58:29;;;;;;;3.67;2.25;;;18.90;65.80;;;;;;5055596;28;20036;-69
2023/10/14 12:00:56;;;;;;;2.33;2.13;;;18.90;65.70;;;;;;5074388;28;20052;-68
2023/10/14 12:03:25;;;;;;;2.33;2.13;;;18.90;65.60;;;;;;5093350;28;20085;-68
2023/10/14 12:05:57;;;;;;;2.55;2.30;;;18.90;65.50;;;;;;5075467;28;20031;-68
2023/10/14 12:08:26;;;;;;;3.13;2.33;;;18.90;65.40;;;;;;5075372;28;20032;-69
2023/10/14 12:10:53;;;;;;;2.53;2.33;;;19.00;65.40;;;;;;5074933;28;20032;-69
2023/10/14 12:13:19;;;;;;;3.45;2.50;;;18.90;65.30;;;;;;5093362;28;20437;-68
2023/10/14 12:15:46;;;;;;;4.50;2.40;;;19.00;65.30;;;;;;5075369;28;20036;-68
2023/10/14 12:18:14;;;;;;;2.38;2.10;;;19.00;65.30;;;;;;5075330;28;20465;-69
2023/10/14 12:20:45;;;;;;;3.80;2.40;;;19.00;65.20;;;;;;5075341;28;20033;-69
2023/10/14 12:23:12;;;;;;;3.35;2.50;;;19.00;65.20;;;;;;5076754;28;20165;-68
2023/10/14 12:25:37;;;;;;;2.70;2.50;;;19.00;65.10;;;;;;5078568;28;20032;-68
2023/10/14 12:28:03;;;;;;;3.05;2.30;;;19.00;65.10;;;;;;5079152;28;20051;-69
2023/10/14 12:31:03;;;;;;;2.22;2.03;;;19.00;65.10;;;;;;5079152;28;20032;-69
2023/10/14 12:33:22;;;;;;;2.80;2.25;;;19.10;65.10;;;;;;5073869;28;20047;-69
2023/10/14 12:35:54;;;;;;;4.20;2.35;;;19.10;65.00;;;;;;5058626;28;20028;-68
2023/10/14 12:38:22;;;;;;;2.40;2.20;;;19.10;65.00;;;;;;5059117;28;20078;-69
2023/10/14 12:40:49;;;;;;;2.80;2.35;;;19.10;64.90;;;;;;5060749;28;20028;-68
2023/10/14 12:43:27;;;;;;;2.60;2.40;;;19.10;64.90;;;;;;5079231;28;20059;-69
2023/10/14 12:46:00;;;;;;;3.50;2.10;;;19.10;64.90;;;;;;5078083;28;20035;-69
2023/10/14 12:48:27;;;;;;;3.27;2.57;;;19.20;64.90;;;;;;5078272;28;20032;-68
2023/10/14 12:50:53;;;;;;;3.17;2.70;;;19.20;64.80;;;;;;5078939;28;20739;-68
2023/10/14 12:53:18;;;;;;;4.45;2.90;;;19.30;64.80;;;;;;5078920;28;20028;-69
2023/10/14 12:55:46;;;;;;;2.88;2.58;;;19.30;64.70;;;;;;5096820;28;20028;-69
2023/10/14 12:58:12;;;;;;;2.88;2.47;;;19.30;64.60;;;;;;5078798;28;20031;-69
2023/10/14 13:00:39;;;;;;;3.33;2.70;;;19.30;64.50;;;;;;5078611;28;20378;-69
2023/10/14 13:03:09;;;;;;;3.67;2.80;;;19.40;64.50;;;;;;5096190;28;20020;-69
2023/10/14 13:05:36;;;;;;;2.83;2.53;;;19.40;64.40;;;;;;5096714;28;20502;-70
2023/10/14 13:08:02;;;;;;;3.75;2.60;;;19.50;64.40;;;;;;5078492;28;20039;-68
2023/10/14 13:10:28;;;;;;;2.65;2.35;;;19.50;64.20;;;;;;5078486;28;20028;-69
2023/10/14 13:12:58;;;;;;;4.10;2.90;;;19.60;64.10;;;;;;5078188;28;20032;-68
2023/10/14 13:15:34;;;;;;;3.10;2.45;;;19.70;64.10;;;;;;5077942;28;20027;-69
2023/10/14 13:18:04;;;;;;;3.80;2.58;;;19.80;63.90;;;;;;5096900;28;20044;-69
2023/10/14 13:20:32;;;;;;;3.35;2.80;;;19.80;63.80;;;;;;5096153;28;20028;-69
2023/10/14 13:23:18;;;;;;;3.00;2.65;;;19.90;63.60;;;;;;5096350;28;20108;-69
2023/10/14 13:25:45;;;;;;;3.47;2.70;;;20.10;63.30;;;;;;5077525;28;20048;-70
2023/10/14 13:28:13;;;;;;;3.28;2.70;;;20.10;63.30;;;;;;5078144;28;20535;-69
2023/10/14 13:30:47;;;;;;;3.50;2.50;;;20.20;63.10;;;;;;5096018;28;20111;-69
2023/10/14 13:33:13;;;;;;;2.95;2.67;;;20.40;62.90;;;;;;5096194;28;20028;-70
2023/10/14 13:35:43;;;;;;;2.70;2.40;;;20.50;62.70;;;;;;5078072;28;20428;-70
2023/10/14 13:38:13;;;;;;;4.90;2.78;;;20.60;62.40;;;;;;5096309;28;20385;-68
2023/10/14 13:40:39;;;;;;;4.15;2.70;;;20.70;62.20;;;;;;5077380;28;20020;-68
2023/10/14 13:43:05;;;;;;;4.45;2.88;;;20.90;62.10;;;;;;5077924;28;20020;-69
2023/10/14 13:45:31;;;;;;;3.10;2.55;;;21.00;61.90;;;;;;5077858;28;20056;-71